createdAt,value
2019-05-22T00:00:59.342Z,100515.00
2019-05-22T00:03:37.788Z,100520.00
2019-05-22T00:06:09.816Z,100518.00
2019-05-22T00:08:41.649Z,100520.00
2019-05-22T00:11:13.479Z,100516.00
2019-05-22T00:13:45.553Z,100521.00
2019-05-22T00:16:17.352Z,100511.00
2019-05-22T00:18:52.730Z,100526.00
2019-05-22T00:21:25.156Z,100522.00
2019-05-22T00:23:55.562Z,100510.00
2019-05-22T00:26:28.524Z,100528.00
2019-05-22T00:29:01.947Z,100520.00
2019-05-22T00:31:32.315Z,100516.00
2019-05-22T00:34:03.596Z,100525.00
2019-05-22T00:36:33.947Z,100540.00
2019-05-22T00:39:05.394Z,100534.00
2019-05-22T00:41:35.828Z,100530.00
2019-05-22T00:44:08.296Z,100530.00
2019-05-22T00:46:40.220Z,100546.00
2019-05-22T00:49:13.468Z,100546.00
2019-05-22T00:52:03.104Z,100550.00
2019-05-22T00:54:47.066Z,100542.00
2019-05-22T00:57:35.104Z,100549.00
2019-05-22T01:00:21.931Z,100549.00
2019-05-22T01:02:54.363Z,100550.00
2019-05-22T01:05:28.000Z,100548.00
2019-05-22T01:07:58.311Z,100541.00
2019-05-22T01:10:30.372Z,100538.00
2019-05-22T01:13:03.379Z,100547.00
2019-05-22T01:15:35.346Z,100533.00
2019-05-22T01:18:10.327Z,100546.00
2019-05-22T01:20:42.453Z,100538.00
2019-05-22T01:23:18.155Z,100543.00
2019-05-22T01:25:49.055Z,100537.00
2019-05-22T01:28:24.165Z,100543.00
2019-05-22T01:31:28.755Z,100541.00
2019-05-22T01:34:19.253Z,100543.00
2019-05-22T01:36:59.971Z,100540.00
2019-05-22T01:39:49.363Z,100540.00
2019-05-22T01:42:25.786Z,100544.00
2019-05-22T01:45:05.982Z,100545.00
2019-05-22T01:48:06.827Z,100546.00
2019-05-22T01:50:57.050Z,100552.00
2019-05-22T01:53:37.612Z,100559.00
2019-05-22T01:56:11.535Z,100560.00
2019-05-22T01:58:43.695Z,100554.00
2019-05-22T02:01:18.648Z,100557.00
2019-05-22T02:03:51.039Z,100560.00
2019-05-22T02:06:23.674Z,100565.00
2019-05-22T02:09:28.702Z,100561.00
2019-05-22T02:12:07.516Z,100573.00
2019-05-22T02:14:41.606Z,100565.00
2019-05-22T02:17:12.364Z,100576.00
2019-05-22T02:19:43.524Z,100571.00
2019-05-22T02:22:15.256Z,100579.00
2019-05-22T02:24:48.839Z,100571.00
2019-05-22T02:27:21.260Z,100589.00
2019-05-22T02:29:55.464Z,100591.00
2019-05-22T02:32:28.677Z,100598.00
2019-05-22T02:35:00.676Z,100594.00
2019-05-22T02:37:34.662Z,100598.00
2019-05-22T02:40:09.737Z,100612.00
2019-05-22T02:42:40.710Z,100602.00
2019-05-22T02:45:11.539Z,100604.00
2019-05-22T02:47:43.696Z,100602.00
2019-05-22T02:50:14.910Z,100618.00
2019-05-22T02:52:45.646Z,100606.00
2019-05-22T02:55:17.690Z,100617.00
2019-05-22T02:57:48.411Z,100613.00
2019-05-22T03:00:19.935Z,100617.00
2019-05-22T03:02:53.524Z,100617.00
2019-05-22T03:05:25.350Z,100617.00
2019-05-22T03:07:57.652Z,100634.00
2019-05-22T03:10:29.353Z,100624.00
2019-05-22T03:13:00.024Z,100634.00
2019-05-22T03:15:30.537Z,100633.00
2019-05-22T03:18:02.660Z,100644.00
2019-05-22T03:20:35.928Z,100628.00
2019-05-22T03:23:24.150Z,100629.00
2019-05-22T03:25:54.867Z,100632.00
2019-05-22T03:28:25.980Z,100625.00
2019-05-22T03:30:57.461Z,100647.00
2019-05-22T03:33:27.745Z,100648.00
2019-05-22T03:36:10.722Z,100641.00
2019-05-22T03:38:42.512Z,100645.00
2019-05-22T03:41:14.866Z,100642.00
2019-05-22T03:43:48.572Z,100647.00
2019-05-22T03:46:44.578Z,100640.00
2019-05-22T03:49:29.958Z,100649.00
2019-05-22T03:51:52.529Z,100649.00
2019-05-22T03:54:24.709Z,100648.00
2019-05-22T03:56:58.567Z,100655.00
2019-05-22T03:59:30.335Z,100659.00
2019-05-22T04:02:00.926Z,100662.00
2019-05-22T04:04:39.416Z,100667.00
2019-05-22T04:07:15.806Z,100664.00
2019-05-22T04:09:48.719Z,100659.00
2019-05-22T04:12:21.589Z,100654.00
2019-05-22T04:14:52.978Z,100657.00
2019-05-22T04:17:25.192Z,100668.00
2019-05-22T04:19:57.382Z,100664.00
2019-05-22T04:22:30.854Z,100666.00
2019-05-22T04:25:01.992Z,100665.00
2019-05-22T04:27:33.503Z,100673.00
2019-05-22T04:30:06.492Z,100679.00
2019-05-22T04:32:39.805Z,100687.00
2019-05-22T04:35:12.985Z,100678.00
2019-05-22T04:37:45.723Z,100680.00
2019-05-22T04:40:58.563Z,100682.00
2019-05-22T04:43:32.672Z,100681.00
2019-05-22T04:46:06.796Z,100684.00
2019-05-22T04:48:38.371Z,100685.00
2019-05-22T04:51:26.567Z,100691.00
2019-05-22T04:53:59.082Z,100691.00
2019-05-22T04:56:30.857Z,100686.00
2019-05-22T04:59:02.914Z,100697.00
2019-05-22T05:01:34.997Z,100698.00
2019-05-22T05:04:06.851Z,100706.00
2019-05-22T05:06:40.877Z,100700.00
2019-05-22T05:09:13.746Z,100710.00
2019-05-22T05:11:45.220Z,100697.00
2019-05-22T05:14:16.061Z,100708.00
2019-05-22T05:16:49.303Z,100706.00
2019-05-22T05:19:20.523Z,100724.00
2019-05-22T05:21:51.486Z,100719.00
2019-05-22T05:24:23.997Z,100710.00
2019-05-22T05:26:55.119Z,100720.00
2019-05-22T05:29:33.473Z,100718.00
2019-05-22T05:32:06.216Z,100718.00
2019-05-22T05:35:02.235Z,100726.00
2019-05-22T05:37:33.844Z,100731.00
2019-05-22T05:40:42.416Z,100726.00
2019-05-22T05:43:15.649Z,100741.00
2019-05-22T05:45:49.755Z,100743.00
2019-05-22T05:48:26.115Z,100741.00
2019-05-22T05:51:28.611Z,100740.00
2019-05-22T05:54:18.005Z,100753.00
2019-05-22T05:56:49.874Z,100747.00
2019-05-22T05:59:21.855Z,100750.00
2019-05-22T06:02:00.608Z,100761.00
2019-05-22T06:04:38.029Z,100753.00
2019-05-22T06:07:22.932Z,100767.00
2019-05-22T06:10:41.069Z,100762.00
2019-05-22T06:13:13.100Z,100760.00
2019-05-22T06:16:31.153Z,100779.00
2019-05-22T06:19:02.914Z,100776.00
2019-05-22T06:21:33.999Z,100774.00
2019-05-22T06:24:28.260Z,100780.00
2019-05-22T06:27:11.113Z,100780.00
2019-05-22T06:29:53.263Z,100782.00
2019-05-22T06:33:02.575Z,100775.00
2019-05-22T06:35:36.289Z,100783.00
2019-05-22T06:38:42.787Z,100801.00
2019-05-22T06:41:14.382Z,100787.00
2019-05-22T06:44:27.108Z,100786.00
2019-05-22T06:46:58.313Z,100790.00
2019-05-22T06:50:01.001Z,100785.00
2019-05-22T06:52:31.995Z,100787.00
2019-05-22T06:55:04.497Z,100786.00
2019-05-22T06:57:36.059Z,100796.00
2019-05-22T07:00:14.630Z,100799.00
2019-05-22T07:02:45.978Z,100790.00
2019-05-22T07:05:16.912Z,100802.00
2019-05-22T07:07:48.927Z,100807.00
2019-05-22T07:10:20.986Z,100818.00
2019-05-22T07:12:51.935Z,100812.00
2019-05-22T07:15:34.168Z,100818.00
2019-05-22T07:18:07.629Z,100819.00
2019-05-22T07:20:40.064Z,100822.00
2019-05-22T07:23:15.139Z,100826.00
2019-05-22T07:25:47.338Z,100836.00
2019-05-22T07:28:19.702Z,100826.00
2019-05-22T07:30:52.390Z,100820.00
2019-05-22T07:33:25.147Z,100829.00
2019-05-22T07:36:17.030Z,100836.00
2019-05-22T07:38:32.652Z,100832.00
2019-05-22T07:41:04.024Z,100832.00
2019-05-22T07:43:41.189Z,100830.00
2019-05-22T07:46:11.800Z,100837.00
2019-05-22T07:48:42.596Z,100846.00
2019-05-22T07:51:16.393Z,100837.00
2019-05-22T07:53:46.199Z,100843.00
2019-05-22T07:56:17.912Z,100845.00
2019-05-22T07:58:49.159Z,100858.00
2019-05-22T08:01:20.628Z,100860.00
2019-05-22T08:03:56.570Z,100864.00
2019-05-22T08:06:27.233Z,100863.00
2019-05-22T08:09:00.175Z,100874.00
2019-05-22T08:11:30.900Z,100864.00
2019-05-22T08:14:02.365Z,100867.00
2019-05-22T08:16:35.058Z,100872.00
2019-05-22T08:19:06.038Z,100879.00
2019-05-22T08:21:38.990Z,100877.00
2019-05-22T08:24:10.419Z,100885.00
2019-05-22T08:26:53.872Z,100879.00
2019-05-22T08:29:16.299Z,100891.00
2019-05-22T08:31:48.528Z,100883.00
2019-05-22T08:34:20.435Z,100888.00
2019-05-22T08:36:51.030Z,100888.00
2019-05-22T08:39:23.445Z,100904.00
2019-05-22T08:41:58.309Z,100895.00
2019-05-22T08:44:29.675Z,100909.00
2019-05-22T08:47:00.988Z,100906.00
2019-05-22T08:49:32.520Z,100895.00
2019-05-22T08:52:04.890Z,100908.00
2019-05-22T08:54:36.200Z,100903.00
2019-05-22T08:57:09.945Z,100906.00
2019-05-22T08:59:40.638Z,100907.00
2019-05-22T09:02:12.135Z,100911.00
2019-05-22T09:04:43.223Z,100907.00
2019-05-22T09:07:13.883Z,100906.00
2019-05-22T09:09:44.329Z,100912.00
2019-05-22T09:12:16.658Z,100910.00
2019-05-22T09:14:49.057Z,100912.00
2019-05-22T09:17:21.455Z,100921.00
2019-05-22T09:19:53.001Z,100927.00
2019-05-22T09:22:39.135Z,100921.00
2019-05-22T09:24:56.702Z,100921.00
2019-05-22T09:27:27.806Z,100930.00
2019-05-22T09:29:58.572Z,100934.00
2019-05-22T09:32:29.328Z,100926.00
2019-05-22T09:34:59.772Z,100923.00
2019-05-22T09:37:30.812Z,100935.00
2019-05-22T09:40:02.238Z,100938.00
2019-05-22T09:42:34.389Z,100949.00
2019-05-22T09:45:05.967Z,100954.00
2019-05-22T09:47:38.692Z,100947.00
2019-05-22T09:50:14.799Z,100953.00
2019-05-22T09:52:57.072Z,100955.00
2019-05-22T09:55:21.181Z,100950.00
2019-05-22T09:57:58.923Z,100950.00
2019-05-22T10:00:33.636Z,100961.00
2019-05-22T10:03:03.207Z,100955.00
2019-05-22T10:05:34.224Z,100953.00
2019-05-22T10:08:06.243Z,100959.00
2019-05-22T10:10:38.473Z,100956.00
2019-05-22T10:13:09.993Z,100963.00
2019-05-22T10:15:40.880Z,100960.00
2019-05-22T10:18:12.193Z,100967.00
2019-05-22T10:20:43.557Z,100969.00
2019-05-22T10:23:16.424Z,100975.00
2019-05-22T10:25:49.514Z,100967.00
2019-05-22T10:28:20.166Z,100975.00
2019-05-22T10:30:51.575Z,100981.00
2019-05-22T10:33:22.297Z,100985.00
2019-05-22T10:35:56.185Z,100989.00
2019-05-22T10:38:26.814Z,100992.00
2019-05-22T10:40:59.360Z,100996.00
2019-05-22T10:43:30.470Z,100992.00
2019-05-22T10:46:01.062Z,100999.00
2019-05-22T10:48:31.738Z,100998.00
2019-05-22T10:51:02.198Z,100995.00
2019-05-22T10:53:34.279Z,100988.00
2019-05-22T10:56:06.005Z,100999.00
2019-05-22T10:58:38.606Z,100995.00
2019-05-22T11:01:11.568Z,101001.00
2019-05-22T11:03:43.926Z,100995.00
2019-05-22T11:06:17.130Z,101001.00
2019-05-22T11:08:50.329Z,100996.00
2019-05-22T11:11:21.869Z,100996.00
2019-05-22T11:14:01.414Z,100984.00
2019-05-22T11:16:25.992Z,101001.00
2019-05-22T11:18:57.769Z,100990.00
2019-05-22T11:21:29.341Z,100992.00
2019-05-22T11:24:00.553Z,100992.00
2019-05-22T11:26:32.465Z,100997.00
2019-05-22T11:29:03.735Z,100993.00
2019-05-22T11:31:35.752Z,101007.00
2019-05-22T11:34:06.781Z,100994.00
2019-05-22T11:36:38.638Z,100991.00
2019-05-22T11:39:14.241Z,100998.00
2019-05-22T11:41:45.216Z,101004.00
2019-05-22T11:44:15.835Z,101008.00
2019-05-22T11:46:47.623Z,101001.00
2019-05-22T11:49:19.615Z,100990.00
2019-05-22T11:51:50.281Z,101005.00
2019-05-22T11:54:20.973Z,100998.00
2019-05-22T11:56:52.152Z,101014.00
2019-05-22T11:59:24.086Z,101005.00
2019-05-22T12:01:55.342Z,101005.00
2019-05-22T12:04:26.347Z,101001.00
2019-05-22T12:07:01.265Z,101001.00
2019-05-22T12:09:32.593Z,100998.00
2019-05-22T12:12:03.540Z,100999.00
2019-05-22T12:14:35.620Z,100999.00
2019-05-22T12:17:07.013Z,100997.00
2019-05-22T12:19:37.807Z,101005.00
2019-05-22T12:22:09.147Z,101001.00
2019-05-22T12:24:39.776Z,101000.00
2019-05-22T12:27:11.611Z,101015.00
2019-05-22T12:29:44.136Z,101009.00
2019-05-22T12:32:15.139Z,101018.00
2019-05-22T12:34:46.119Z,101017.00
2019-05-22T12:37:17.342Z,101023.00
2019-05-22T12:39:48.803Z,101011.00
2019-05-22T12:42:19.440Z,101015.00
2019-05-22T12:44:52.881Z,101015.00
2019-05-22T12:47:29.433Z,101021.00
2019-05-22T12:50:00.821Z,101019.00
2019-05-22T12:52:31.577Z,101026.00
2019-05-22T12:55:03.173Z,101026.00
2019-05-22T12:57:34.379Z,101022.00
2019-05-22T13:00:06.192Z,101028.00
2019-05-22T13:02:42.241Z,101029.00
2019-05-22T13:05:14.497Z,101028.00
2019-05-22T13:07:44.794Z,101023.00
2019-05-22T13:10:17.274Z,101016.00
2019-05-22T13:12:48.494Z,101025.00
2019-05-22T13:15:27.489Z,101026.00
2019-05-22T13:17:59.970Z,101035.00
2019-05-22T13:20:42.399Z,101029.00
2019-05-22T13:23:09.921Z,101012.00
2019-05-22T13:25:43.325Z,101035.00
2019-05-22T13:28:17.091Z,101034.00
2019-05-22T13:30:51.287Z,101034.00
2019-05-22T13:33:28.738Z,101035.00
2019-05-22T13:36:00.604Z,101030.00
2019-05-22T13:38:31.245Z,101026.00
2019-05-22T13:41:04.426Z,101030.00
2019-05-22T13:43:36.176Z,101019.00
2019-05-22T13:46:07.308Z,101023.00
2019-05-22T13:48:37.901Z,101042.00
2019-05-22T13:51:11.286Z,101042.00
2019-05-22T13:53:43.382Z,101037.00
2019-05-22T13:56:15.337Z,101038.00
2019-05-22T13:58:47.140Z,101040.00
2019-05-22T14:01:18.792Z,101040.00
2019-05-22T14:03:49.547Z,101039.00
2019-05-22T14:06:20.418Z,101042.00
2019-05-22T14:08:51.840Z,101042.00
2019-05-22T14:11:28.915Z,101046.00
2019-05-22T14:14:00.007Z,101030.00
2019-05-22T14:16:30.817Z,101041.00
2019-05-22T14:19:01.540Z,101042.00
2019-05-22T14:21:34.797Z,101042.00
2019-05-22T14:24:05.852Z,101048.00
2019-05-22T14:26:36.494Z,101043.00
2019-05-22T14:29:09.644Z,101046.00
2019-05-22T14:31:41.182Z,101042.00
2019-05-22T14:34:13.650Z,101048.00
2019-05-22T14:36:44.728Z,101048.00
2019-05-22T14:39:16.223Z,101038.00
2019-05-22T14:41:47.025Z,101044.00
2019-05-22T14:44:17.844Z,101037.00
2019-05-22T14:46:48.620Z,101040.00
2019-05-22T14:49:20.893Z,101048.00
2019-05-22T14:51:52.109Z,101049.00
2019-05-22T14:54:24.364Z,101041.00
2019-05-22T14:56:56.042Z,101033.00
2019-05-22T14:59:27.538Z,101036.00
2019-05-22T15:01:58.379Z,101036.00
2019-05-22T15:04:30.417Z,101037.00
2019-05-22T15:07:01.270Z,101040.00
2019-05-22T15:09:32.179Z,101050.00
2019-05-22T15:12:02.875Z,101042.00
2019-05-22T15:14:33.595Z,101039.00
2019-05-22T15:17:04.773Z,101038.00
2019-05-22T15:19:37.884Z,101036.00
2019-05-22T15:22:09.319Z,101037.00
2019-05-22T15:24:40.727Z,101035.00
2019-05-22T15:27:14.517Z,101035.00
2019-05-22T15:29:46.431Z,101036.00
2019-05-22T15:32:20.742Z,101030.00
2019-05-22T15:34:51.999Z,101032.00
2019-05-22T15:37:25.447Z,101027.00
2019-05-22T15:39:56.596Z,101017.00
2019-05-22T15:42:40.311Z,101011.00
2019-05-22T15:45:19.468Z,101029.00
2019-05-22T15:47:56.321Z,101025.00
2019-05-22T15:50:29.008Z,101020.00
2019-05-22T15:53:05.488Z,101009.00
2019-05-22T15:55:36.846Z,101003.00
2019-05-22T15:58:08.908Z,101019.00
2019-05-22T16:00:41.199Z,101017.00
2019-05-22T16:03:15.519Z,101004.00
2019-05-22T16:05:47.864Z,101025.00
2019-05-22T16:08:19.397Z,101023.00
2019-05-22T16:10:52.365Z,101016.00
2019-05-22T16:13:26.910Z,101022.00
2019-05-22T16:15:59.990Z,101021.00
2019-05-22T16:18:34.835Z,101026.00
2019-05-22T16:21:08.232Z,101024.00
2019-05-22T16:23:40.398Z,101031.00
2019-05-22T16:26:13.346Z,101015.00
2019-05-22T16:28:47.775Z,101027.00
2019-05-22T16:31:20.811Z,101021.00
2019-05-22T16:33:53.122Z,101020.00
2019-05-22T16:36:25.076Z,101019.00
2019-05-22T16:38:56.887Z,101019.00
2019-05-22T16:41:28.249Z,101024.00
2019-05-22T16:43:59.898Z,101021.00
2019-05-22T16:46:31.404Z,101023.00
2019-05-22T16:49:03.772Z,101025.00
2019-05-22T16:51:34.857Z,101024.00
2019-05-22T16:54:08.409Z,101033.00
2019-05-22T16:56:41.143Z,101023.00
2019-05-22T16:59:14.420Z,101036.00
2019-05-22T17:01:58.674Z,101032.00
2019-05-22T17:04:18.792Z,101032.00
2019-05-22T17:06:49.632Z,101035.00
2019-05-22T17:09:24.771Z,101036.00
2019-05-22T17:11:56.858Z,101033.00
2019-05-22T17:14:29.846Z,101017.00
2019-05-22T17:17:00.721Z,101036.00
2019-05-22T17:19:33.420Z,101034.00
2019-05-22T17:22:06.548Z,101022.00
2019-05-22T17:24:37.996Z,101026.00
2019-05-22T17:27:10.804Z,101035.00
2019-05-22T17:29:44.167Z,101028.00
2019-05-22T17:32:16.094Z,101028.00
2019-05-22T17:34:47.442Z,101024.00
2019-05-22T17:37:21.411Z,101024.00
2019-05-22T17:39:53.043Z,101017.00
2019-05-22T17:42:27.434Z,101019.00
2019-05-22T17:44:58.814Z,101026.00
2019-05-22T17:47:30.956Z,101021.00
2019-05-22T17:50:06.244Z,101030.00
2019-05-22T17:52:38.129Z,101030.00
2019-05-22T17:55:10.589Z,101027.00
2019-05-22T17:57:41.903Z,101028.00
2019-05-22T18:00:22.572Z,101037.00
2019-05-22T18:02:53.741Z,101027.00
2019-05-22T18:05:25.089Z,101035.00
2019-05-22T18:07:56.395Z,101034.00
2019-05-22T18:10:27.435Z,101035.00
2019-05-22T18:12:58.504Z,101029.00
2019-05-22T18:15:29.456Z,101039.00
2019-05-22T18:18:00.949Z,101036.00
2019-05-22T18:20:42.292Z,101036.00
2019-05-22T18:23:05.611Z,101035.00
2019-05-22T18:25:37.429Z,101033.00
2019-05-22T18:28:10.424Z,101043.00
2019-05-22T18:30:44.316Z,101038.00
2019-05-22T18:33:16.261Z,101038.00
2019-05-22T18:35:47.592Z,101050.00
2019-05-22T18:38:18.227Z,101044.00
2019-05-22T18:40:51.480Z,101046.00
2019-05-22T18:43:26.040Z,101045.00
2019-05-22T18:46:00.520Z,101045.00
2019-05-22T18:48:33.250Z,101063.00
2019-05-22T18:51:06.464Z,101044.00
2019-05-22T18:53:37.419Z,101043.00
2019-05-22T18:56:10.923Z,101056.00
2019-05-22T18:58:41.928Z,101048.00
2019-05-22T19:01:12.587Z,101052.00
2019-05-22T19:03:43.525Z,101059.00
2019-05-22T19:06:14.312Z,101065.00
2019-05-22T19:08:46.683Z,101068.00
2019-05-22T19:11:17.231Z,101068.00
2019-05-22T19:13:47.873Z,101073.00
2019-05-22T19:16:18.379Z,101065.00
2019-05-22T19:18:51.441Z,101066.00
2019-05-22T19:21:22.593Z,101079.00
2019-05-22T19:23:53.070Z,101057.00
2019-05-22T19:26:24.411Z,101066.00
2019-05-22T19:28:55.468Z,101076.00
2019-05-22T19:31:26.268Z,101069.00
2019-05-22T19:33:56.649Z,101080.00
2019-05-22T19:36:27.846Z,101075.00
2019-05-22T19:38:58.477Z,101074.00
2019-05-22T19:41:29.277Z,101068.00
2019-05-22T19:43:59.526Z,101087.00
2019-05-22T19:46:30.873Z,101074.00
2019-05-22T19:49:01.858Z,101093.00
2019-05-22T19:51:32.916Z,101083.00
2019-05-22T19:54:03.748Z,101094.00
2019-05-22T19:56:34.350Z,101087.00
2019-05-22T19:59:05.910Z,101088.00
2019-05-22T20:01:36.303Z,101101.00
2019-05-22T20:04:06.915Z,101102.00
2019-05-22T20:06:38.526Z,101107.00
2019-05-22T20:09:11.816Z,101112.00
2019-05-22T20:11:43.238Z,101111.00
2019-05-22T20:14:16.728Z,101102.00
2019-05-22T20:16:47.157Z,101103.00
2019-05-22T20:19:18.426Z,101108.00
2019-05-22T20:21:49.593Z,101107.00
2019-05-22T20:24:20.609Z,101112.00
2019-05-22T20:26:50.941Z,101112.00
2019-05-22T20:29:22.406Z,101106.00
2019-05-22T20:31:53.371Z,101109.00
2019-05-22T20:34:23.908Z,101123.00
2019-05-22T20:36:55.248Z,101113.00
2019-05-22T20:39:29.304Z,101118.00
2019-05-22T20:41:58.134Z,101111.00
2019-05-22T20:44:31.297Z,101115.00
2019-05-22T20:47:02.652Z,101122.00
2019-05-22T20:49:36.401Z,101121.00
2019-05-22T20:52:10.721Z,101125.00
2019-05-22T20:54:40.930Z,101119.00
2019-05-22T20:57:12.958Z,101124.00
2019-05-22T20:59:45.932Z,101119.00
2019-05-22T21:02:18.726Z,101113.00
2019-05-22T21:04:51.507Z,101124.00
2019-05-22T21:07:26.759Z,101125.00
2019-05-22T21:09:57.665Z,101129.00
2019-05-22T21:12:28.650Z,101122.00
2019-05-22T21:15:01.429Z,101128.00
2019-05-22T21:17:32.808Z,101122.00
2019-05-22T21:20:04.772Z,101129.00
2019-05-22T21:22:35.844Z,101129.00
2019-05-22T21:25:08.190Z,101133.00
2019-05-22T21:27:39.546Z,101126.00
2019-05-22T21:30:12.927Z,101135.00
2019-05-22T21:32:44.311Z,101130.00
2019-05-22T21:35:17.392Z,101133.00
2019-05-22T21:37:48.675Z,101129.00
2019-05-22T21:40:25.720Z,101136.00
2019-05-22T21:43:00.394Z,101142.00
2019-05-22T21:45:31.721Z,101137.00
2019-05-22T21:48:04.094Z,101147.00
2019-05-22T21:50:34.867Z,101143.00
2019-05-22T21:53:09.717Z,101144.00
2019-05-22T21:55:45.433Z,101149.00
2019-05-22T21:58:16.312Z,101140.00
2019-05-22T22:01:26.774Z,101149.00
2019-05-22T22:04:03.399Z,101155.00
2019-05-22T22:06:37.541Z,101147.00
2019-05-22T22:09:09.141Z,101148.00
2019-05-22T22:11:42.745Z,101152.00
2019-05-22T22:14:14.005Z,101152.00
2019-05-22T22:16:45.464Z,101152.00
2019-05-22T22:19:18.440Z,101151.00
2019-05-22T22:21:49.698Z,101149.00
2019-05-22T22:24:21.116Z,101154.00
2019-05-22T22:26:52.073Z,101163.00
2019-05-22T22:29:23.030Z,101159.00
2019-05-22T22:31:55.012Z,101168.00
2019-05-22T22:34:38.437Z,101168.00
2019-05-22T22:37:11.447Z,101164.00
2019-05-22T22:39:50.465Z,101165.00
2019-05-22T22:42:24.940Z,101169.00
2019-05-22T22:44:57.867Z,101178.00
2019-05-22T22:47:44.146Z,101170.00
2019-05-22T22:50:17.060Z,101168.00
2019-05-22T22:52:48.727Z,101166.00
2019-05-22T22:55:21.057Z,101169.00
2019-05-22T22:57:52.349Z,101174.00
2019-05-22T23:00:29.846Z,101169.00
2019-05-22T23:03:01.627Z,101171.00
2019-05-22T23:05:34.564Z,101161.00
2019-05-22T23:08:05.704Z,101170.00
2019-05-22T23:10:36.978Z,101170.00
2019-05-22T23:13:14.445Z,101164.00
2019-05-22T23:15:46.501Z,101165.00
2019-05-22T23:18:32.789Z,101173.00
2019-05-22T23:21:01.489Z,101178.00
2019-05-22T23:23:30.453Z,101173.00
2019-05-22T23:26:02.419Z,101169.00
2019-05-22T23:28:35.069Z,101178.00
2019-05-22T23:31:06.581Z,101176.00
2019-05-22T23:33:39.657Z,101169.00
2019-05-22T23:36:12.217Z,101171.00
2019-05-22T23:38:43.445Z,101172.00
2019-05-22T23:41:14.608Z,101170.00
2019-05-22T23:43:46.336Z,101176.00
2019-05-22T23:46:18.601Z,101186.00
2019-05-22T23:48:54.350Z,101188.00
2019-05-22T23:51:23.464Z,101178.00
2019-05-22T23:53:56.090Z,101180.00
2019-05-22T23:56:28.593Z,101169.00
2019-05-22T23:58:59.387Z,101168.00
